sensor_id;sensor_type;location;lat;lon;timestamp;temperature;humidity
27667;DHT22;15074;50.940;5.282;2023-06-19T00:01:55;20.50;99.90
27667;DHT22;15074;50.940;5.282;2023-06-19T00:04:20;20.50;99.90
27667;DHT22;15074;50.940;5.282;2023-06-19T00:06:46;20.50;99.90
27667;DHT22;15074;50.940;5.282;2023-06-19T00:09:11;20.50;99.90
27667;DHT22;15074;50.940;5.282;2023-06-19T00:11:38;20.40;99.90
27667;DHT22;15074;50.940;5.282;2023-06-19T00:14:04;20.30;99.90
27667;DHT22;15074;50.940;5.282;2023-06-19T00:16:30;20.30;99.90
27667;DHT22;15074;50.940;5.282;2023-06-19T00:18:56;20.30;99.90
27667;DHT22;15074;50.940;5.282;2023-06-19T00:21:22;20.40;99.90
27667;DHT22;15074;50.940;5.282;2023-06-19T00:23:52;20.40;99.90
27667;DHT22;15074;50.940;5.282;2023-06-19T00:26:18;20.40;99.90
27667;DHT22;15074;50.940;5.282;2023-06-19T00:28:51;20.40;99.90
27667;DHT22;15074;50.940;5.282;2023-06-19T00:31:17;20.50;99.90
27667;DHT22;15074;50.940;5.282;2023-06-19T00:33:44;20.50;99.90
27667;DHT22;15074;50.940;5.282;2023-06-19T00:36:14;20.40;99.90
27667;DHT22;15074;50.940;5.282;2023-06-19T00:38:41;20.30;99.90
27667;DHT22;15074;50.940;5.282;2023-06-19T00:41:07;20.20;99.90
27667;DHT22;15074;50.940;5.282;2023-06-19T00:43:34;20.20;99.90
27667;DHT22;15074;50.940;5.282;2023-06-19T00:46:01;20.20;99.90
27667;DHT22;15074;50.940;5.282;2023-06-19T00:48:28;20.20;99.90
27667;DHT22;15074;50.940;5.282;2023-06-19T00:50:55;20.20;99.90
27667;DHT22;15074;50.940;5.282;2023-06-19T00:53:22;20.10;99.90
27667;DHT22;15074;50.940;5.282;2023-06-19T00:55:48;20.00;99.90
27667;DHT22;15074;50.940;5.282;2023-06-19T00:58:17;19.90;99.90
27667;DHT22;15074;50.940;5.282;2023-06-19T01:00:43;20.00;99.90
27667;DHT22;15074;50.940;5.282;2023-06-19T01:03:09;20.00;99.90
27667;DHT22;15074;50.940;5.282;2023-06-19T01:05:35;20.10;99.90
27667;DHT22;15074;50.940;5.282;2023-06-19T01:08:41;20.00;99.90
27667;DHT22;15074;50.940;5.282;2023-06-19T01:11:09;20.00;99.90
27667;DHT22;15074;50.940;5.282;2023-06-19T01:13:49;20.00;99.90
27667;DHT22;15074;50.940;5.282;2023-06-19T01:16:17;20.00;99.90
27667;DHT22;15074;50.940;5.282;2023-06-19T01:18:43;19.90;99.90
27667;DHT22;15074;50.940;5.282;2023-06-19T01:21:17;19.90;99.90
27667;DHT22;15074;50.940;5.282;2023-06-19T01:23:44;19.80;99.90
27667;DHT22;15074;50.940;5.282;2023-06-19T01:26:11;19.80;99.90
27667;DHT22;15074;50.940;5.282;2023-06-19T01:28:38;19.80;99.90
27667;DHT22;15074;50.940;5.282;2023-06-19T01:31:23;19.80;99.90
27667;DHT22;15074;50.940;5.282;2023-06-19T01:33:52;19.70;99.90
27667;DHT22;15074;50.940;5.282;2023-06-19T01:36:20;19.60;99.90
27667;DHT22;15074;50.940;5.282;2023-06-19T01:38:47;19.60;99.90
27667;DHT22;15074;50.940;5.282;2023-06-19T01:41:15;19.50;99.90
27667;DHT22;15074;50.940;5.282;2023-06-19T01:43:42;19.60;99.90
27667;DHT22;15074;50.940;5.282;2023-06-19T01:46:08;19.50;99.90
27667;DHT22;15074;50.940;5.282;2023-06-19T01:48:35;19.60;99.90
27667;DHT22;15074;50.940;5.282;2023-06-19T01:51:01;19.60;99.90
27667;DHT22;15074;50.940;5.282;2023-06-19T01:53:30;19.60;99.90
27667;DHT22;15074;50.940;5.282;2023-06-19T01:55:57;19.70;99.90
27667;DHT22;15074;50.940;5.282;2023-06-19T01:58:23;19.60;99.90
27667;DHT22;15074;50.940;5.282;2023-06-19T02:00:49;19.50;99.90
27667;DHT22;15074;50.940;5.282;2023-06-19T02:03:14;19.50;99.90
27667;DHT22;15074;50.940;5.282;2023-06-19T02:05:40;19.30;99.90
27667;DHT22;15074;50.940;5.282;2023-06-19T02:08:06;19.20;99.90
27667;DHT22;15074;50.940;5.282;2023-06-19T02:10:32;19.10;99.90
27667;DHT22;15074;50.940;5.282;2023-06-19T02:12:58;18.90;99.90
27667;DHT22;15074;50.940;5.282;2023-06-19T02:15:24;18.90;99.90
27667;DHT22;15074;50.940;5.282;2023-06-19T02:17:49;18.90;99.90
27667;DHT22;15074;50.940;5.282;2023-06-19T02:20:23;18.90;99.90
27667;DHT22;15074;50.940;5.282;2023-06-19T02:22:52;18.80;99.90
27667;DHT22;15074;50.940;5.282;2023-06-19T02:25:18;18.70;99.90
27667;DHT22;15074;50.940;5.282;2023-06-19T02:27:44;18.70;99.90
27667;DHT22;15074;50.940;5.282;2023-06-19T02:30:10;18.60;99.90
27667;DHT22;15074;50.940;5.282;2023-06-19T02:32:36;18.50;99.90
27667;DHT22;15074;50.940;5.282;2023-06-19T02:35:04;18.50;99.90
27667;DHT22;15074;50.940;5.282;2023-06-19T02:37:30;18.50;99.90
27667;DHT22;15074;50.940;5.282;2023-06-19T02:39:55;18.50;99.90
27667;DHT22;15074;50.940;5.282;2023-06-19T02:42:21;18.50;99.90
27667;DHT22;15074;50.940;5.282;2023-06-19T02:44:47;18.50;99.90
27667;DHT22;15074;50.940;5.282;2023-06-19T02:47:12;18.40;99.90
27667;DHT22;15074;50.940;5.282;2023-06-19T02:49:38;18.40;99.90
27667;DHT22;15074;50.940;5.282;2023-06-19T02:52:13;18.40;99.90
27667;DHT22;15074;50.940;5.282;2023-06-19T02:54:39;18.30;99.90
27667;DHT22;15074;50.940;5.282;2023-06-19T02:57:05;18.30;99.90
27667;DHT22;15074;50.940;5.282;2023-06-19T02:59:31;18.20;99.90
27667;DHT22;15074;50.940;5.282;2023-06-19T03:01:57;18.20;99.90
27667;DHT22;15074;50.940;5.282;2023-06-19T03:04:22;18.30;99.90
27667;DHT22;15074;50.940;5.282;2023-06-19T03:06:49;18.40;99.90
27667;DHT22;15074;50.940;5.282;2023-06-19T03:09:15;18.40;99.90
27667;DHT22;15074;50.940;5.282;2023-06-19T03:11:43;18.40;99.90
27667;DHT22;15074;50.940;5.282;2023-06-19T03:14:09;18.50;99.90
27667;DHT22;15074;50.940;5.282;2023-06-19T03:16:35;18.50;99.90
27667;DHT22;15074;50.940;5.282;2023-06-19T03:19:01;18.60;99.90
27667;DHT22;15074;50.940;5.282;2023-06-19T03:21:26;18.60;99.90
27667;DHT22;15074;50.940;5.282;2023-06-19T03:23:52;18.70;99.90
27667;DHT22;15074;50.940;5.282;2023-06-19T03:26:21;18.70;99.90
27667;DHT22;15074;50.940;5.282;2023-06-19T03:28:47;18.70;99.90
27667;DHT22;15074;50.940;5.282;2023-06-19T03:31:14;18.70;99.90
27667;DHT22;15074;50.940;5.282;2023-06-19T03:33:40;18.70;99.90
27667;DHT22;15074;50.940;5.282;2023-06-19T03:36:05;18.70;99.90
27667;DHT22;15074;50.940;5.282;2023-06-19T03:38:31;18.70;99.90
27667;DHT22;15074;50.940;5.282;2023-06-19T03:40:57;18.70;99.90
27667;DHT22;15074;50.940;5.282;2023-06-19T03:43:22;18.70;99.90
27667;DHT22;15074;50.940;5.282;2023-06-19T03:45:48;18.70;99.90
27667;DHT22;15074;50.940;5.282;2023-06-19T03:48:15;18.80;99.90
27667;DHT22;15074;50.940;5.282;2023-06-19T03:50:41;18.90;99.90
27667;DHT22;15074;50.940;5.282;2023-06-19T03:53:07;18.90;99.90
27667;DHT22;15074;50.940;5.282;2023-06-19T03:55:33;18.90;99.90
27667;DHT22;15074;50.940;5.282;2023-06-19T03:57:59;19.00;99.90
27667;DHT22;15074;50.940;5.282;2023-06-19T04:00:25;19.10;99.90
27667;DHT22;15074;50.940;5.282;2023-06-19T04:02:50;19.10;99.90
27667;DHT22;15074;50.940;5.282;2023-06-19T04:05:16;19.20;99.90
27667;DHT22;15074;50.940;5.282;2023-06-19T04:07:42;19.20;99.90
27667;DHT22;15074;50.940;5.282;2023-06-19T04:10:08;19.10;99.90
27667;DHT22;15074;50.940;5.282;2023-06-19T04:12:34;19.20;99.90
27667;DHT22;15074;50.940;5.282;2023-06-19T04:15:00;19.10;99.90
27667;DHT22;15074;50.940;5.282;2023-06-19T04:17:25;19.10;99.90
27667;DHT22;15074;50.940;5.282;2023-06-19T04:19:51;18.90;99.90
27667;DHT22;15074;50.940;5.282;2023-06-19T04:22:16;18.90;99.90
27667;DHT22;15074;50.940;5.282;2023-06-19T04:24:42;18.90;99.90
27667;DHT22;15074;50.940;5.282;2023-06-19T04:27:08;18.90;99.90
27667;DHT22;15074;50.940;5.282;2023-06-19T04:29:34;18.80;99.90
27667;DHT22;15074;50.940;5.282;2023-06-19T04:32:01;18.80;99.90
27667;DHT22;15074;50.940;5.282;2023-06-19T04:34:28;18.70;99.90
27667;DHT22;15074;50.940;5.282;2023-06-19T04:36:54;18.60;99.90
27667;DHT22;15074;50.940;5.282;2023-06-19T04:39:24;18.50;99.90
27667;DHT22;15074;50.940;5.282;2023-06-19T04:41:50;18.30;99.90
27667;DHT22;15074;50.940;5.282;2023-06-19T04:44:15;18.20;99.90
27667;DHT22;15074;50.940;5.282;2023-06-19T04:46:42;18.30;99.90
27667;DHT22;15074;50.940;5.282;2023-06-19T04:49:09;18.20;99.90
27667;DHT22;15074;50.940;5.282;2023-06-19T04:51:35;18.30;99.90
27667;DHT22;15074;50.940;5.282;2023-06-19T04:54:01;18.30;99.90
27667;DHT22;15074;50.940;5.282;2023-06-19T04:56:27;18.20;99.90
27667;DHT22;15074;50.940;5.282;2023-06-19T04:58:54;18.30;99.90
27667;DHT22;15074;50.940;5.282;2023-06-19T05:01:24;18.30;99.90
27667;DHT22;15074;50.940;5.282;2023-06-19T05:03:54;18.40;99.90
27667;DHT22;15074;50.940;5.282;2023-06-19T05:06:23;18.40;99.90
27667;DHT22;15074;50.940;5.282;2023-06-19T05:08:48;18.40;99.90
27667;DHT22;15074;50.940;5.282;2023-06-19T05:11:14;18.30;99.90
27667;DHT22;15074;50.940;5.282;2023-06-19T05:13:39;18.20;99.90
27667;DHT22;15074;50.940;5.282;2023-06-19T05:16:05;18.30;99.90
27667;DHT22;15074;50.940;5.282;2023-06-19T05:18:31;18.20;99.90
27667;DHT22;15074;50.940;5.282;2023-06-19T05:20:57;18.30;99.90
27667;DHT22;15074;50.940;5.282;2023-06-19T05:23:22;18.40;99.90
27667;DHT22;15074;50.940;5.282;2023-06-19T05:25:48;18.50;99.90
27667;DHT22;15074;50.940;5.282;2023-06-19T05:28:13;18.50;99.90
27667;DHT22;15074;50.940;5.282;2023-06-19T05:30:39;18.70;99.90
27667;DHT22;15074;50.940;5.282;2023-06-19T05:33:05;19.30;99.90
27667;DHT22;15074;50.940;5.282;2023-06-19T05:35:30;19.80;99.90
27667;DHT22;15074;50.940;5.282;2023-06-19T05:37:57;20.00;99.90
27667;DHT22;15074;50.940;5.282;2023-06-19T05:40:23;20.20;99.90
27667;DHT22;15074;50.940;5.282;2023-06-19T05:42:48;20.20;99.90
27667;DHT22;15074;50.940;5.282;2023-06-19T05:45:14;20.50;99.90
27667;DHT22;15074;50.940;5.282;2023-06-19T05:47:40;20.90;99.90
27667;DHT22;15074;50.940;5.282;2023-06-19T05:50:06;21.50;99.90
27667;DHT22;15074;50.940;5.282;2023-06-19T05:52:31;22.20;99.90
27667;DHT22;15074;50.940;5.282;2023-06-19T05:54:57;22.70;99.90
27667;DHT22;15074;50.940;5.282;2023-06-19T05:57:24;22.90;99.90
27667;DHT22;15074;50.940;5.282;2023-06-19T05:59:52;23.40;99.90
27667;DHT22;15074;50.940;5.282;2023-06-19T06:02:19;23.70;99.90
27667;DHT22;15074;50.940;5.282;2023-06-19T06:04:45;23.50;99.90
27667;DHT22;15074;50.940;5.282;2023-06-19T06:07:11;23.40;99.90
27667;DHT22;15074;50.940;5.282;2023-06-19T06:09:36;23.70;99.90
27667;DHT22;15074;50.940;5.282;2023-06-19T06:12:03;23.80;99.90
27667;DHT22;15074;50.940;5.282;2023-06-19T06:14:28;24.50;99.90
27667;DHT22;15074;50.940;5.282;2023-06-19T06:16:54;24.80;99.90
27667;DHT22;15074;50.940;5.282;2023-06-19T06:19:20;24.90;99.90
27667;DHT22;15074;50.940;5.282;2023-06-19T06:21:49;25.30;99.90
27667;DHT22;15074;50.940;5.282;2023-06-19T06:24:15;24.90;99.90
27667;DHT22;15074;50.940;5.282;2023-06-19T06:26:41;25.20;99.90
27667;DHT22;15074;50.940;5.282;2023-06-19T06:29:07;25.70;99.90
27667;DHT22;15074;50.940;5.282;2023-06-19T06:31:34;26.10;99.90
27667;DHT22;15074;50.940;5.282;2023-06-19T06:33:59;26.20;99.90
27667;DHT22;15074;50.940;5.282;2023-06-19T06:36:25;26.30;99.90
27667;DHT22;15074;50.940;5.282;2023-06-19T06:38:51;26.00;99.90
27667;DHT22;15074;50.940;5.282;2023-06-19T06:41:16;26.00;99.90
27667;DHT22;15074;50.940;5.282;2023-06-19T06:43:42;26.10;99.90
27667;DHT22;15074;50.940;5.282;2023-06-19T06:46:09;25.70;99.90
27667;DHT22;15074;50.940;5.282;2023-06-19T06:48:36;25.80;99.90
27667;DHT22;15074;50.940;5.282;2023-06-19T06:51:01;26.70;99.90
27667;DHT22;15074;50.940;5.282;2023-06-19T06:53:28;26.20;99.90
27667;DHT22;15074;50.940;5.282;2023-06-19T06:55:54;26.50;99.90
27667;DHT22;15074;50.940;5.282;2023-06-19T06:58:20;26.50;99.90
27667;DHT22;15074;50.940;5.282;2023-06-19T07:00:45;26.00;99.90
27667;DHT22;15074;50.940;5.282;2023-06-19T07:03:11;26.10;99.90
27667;DHT22;15074;50.940;5.282;2023-06-19T07:05:37;27.00;99.90
27667;DHT22;15074;50.940;5.282;2023-06-19T07:08:03;26.50;99.90
27667;DHT22;15074;50.940;5.282;2023-06-19T07:10:30;26.70;99.90
27667;DHT22;15074;50.940;5.282;2023-06-19T07:13:05;27.10;99.90
27667;DHT22;15074;50.940;5.282;2023-06-19T07:15:31;26.10;99.90
27667;DHT22;15074;50.940;5.282;2023-06-19T07:17:57;25.90;99.90
27667;DHT22;15074;50.940;5.282;2023-06-19T07:20:22;25.60;99.90
27667;DHT22;15074;50.940;5.282;2023-06-19T07:22:50;26.00;99.90
27667;DHT22;15074;50.940;5.282;2023-06-19T07:25:16;26.50;99.90
27667;DHT22;15074;50.940;5.282;2023-06-19T07:27:42;26.70;99.90
27667;DHT22;15074;50.940;5.282;2023-06-19T07:30:08;26.80;99.90
27667;DHT22;15074;50.940;5.282;2023-06-19T07:32:34;26.80;99.90
27667;DHT22;15074;50.940;5.282;2023-06-19T07:35:00;27.00;99.90
27667;DHT22;15074;50.940;5.282;2023-06-19T07:37:25;27.10;99.90
27667;DHT22;15074;50.940;5.282;2023-06-19T07:39:52;27.40;99.90
27667;DHT22;15074;50.940;5.282;2023-06-19T07:42:19;26.80;99.90
27667;DHT22;15074;50.940;5.282;2023-06-19T07:44:45;26.10;99.90
27667;DHT22;15074;50.940;5.282;2023-06-19T07:47:11;26.50;99.90
27667;DHT22;15074;50.940;5.282;2023-06-19T07:49:37;26.70;99.90
27667;DHT22;15074;50.940;5.282;2023-06-19T07:52:04;26.30;99.90
27667;DHT22;15074;50.940;5.282;2023-06-19T07:54:30;25.70;99.90
27667;DHT22;15074;50.940;5.282;2023-06-19T07:56:56;25.60;99.90
27667;DHT22;15074;50.940;5.282;2023-06-19T07:59:21;25.50;99.90
27667;DHT22;15074;50.940;5.282;2023-06-19T08:01:48;25.20;99.90
27667;DHT22;15074;50.940;5.282;2023-06-19T08:04:14;25.10;99.90
27667;DHT22;15074;50.940;5.282;2023-06-19T08:06:39;24.30;99.90
27667;DHT22;15074;50.940;5.282;2023-06-19T08:09:05;24.80;99.90
27667;DHT22;15074;50.940;5.282;2023-06-19T08:11:31;25.80;99.90
27667;DHT22;15074;50.940;5.282;2023-06-19T08:13:56;26.50;99.90
27667;DHT22;15074;50.940;5.282;2023-06-19T08:16:25;27.20;99.90
27667;DHT22;15074;50.940;5.282;2023-06-19T08:18:51;28.40;99.90
27667;DHT22;15074;50.940;5.282;2023-06-19T08:21:17;28.60;99.90
27667;DHT22;15074;50.940;5.282;2023-06-19T08:23:43;27.40;99.90
27667;DHT22;15074;50.940;5.282;2023-06-19T08:26:10;26.70;99.90
27667;DHT22;15074;50.940;5.282;2023-06-19T08:28:36;26.90;99.90
27667;DHT22;15074;50.940;5.282;2023-06-19T08:31:02;27.10;99.90
27667;DHT22;15074;50.940;5.282;2023-06-19T08:33:28;26.40;99.90
27667;DHT22;15074;50.940;5.282;2023-06-19T08:35:54;26.40;99.90
27667;DHT22;15074;50.940;5.282;2023-06-19T08:38:19;26.60;99.90
27667;DHT22;15074;50.940;5.282;2023-06-19T08:40:45;26.40;99.90
27667;DHT22;15074;50.940;5.282;2023-06-19T08:43:11;26.60;99.90
27667;DHT22;15074;50.940;5.282;2023-06-19T08:45:37;25.90;99.90
27667;DHT22;15074;50.940;5.282;2023-06-19T08:48:03;25.70;99.90
27667;DHT22;15074;50.940;5.282;2023-06-19T08:50:32;25.40;99.90
27667;DHT22;15074;50.940;5.282;2023-06-19T08:52:58;25.60;99.90
27667;DHT22;15074;50.940;5.282;2023-06-19T08:55:24;25.00;99.90
27667;DHT22;15074;50.940;5.282;2023-06-19T08:57:51;25.50;99.90
27667;DHT22;15074;50.940;5.282;2023-06-19T09:00:25;25.30;99.90
27667;DHT22;15074;50.940;5.282;2023-06-19T09:02:52;25.30;99.90
27667;DHT22;15074;50.940;5.282;2023-06-19T09:05:18;25.70;99.90
27667;DHT22;15074;50.940;5.282;2023-06-19T09:07:54;26.00;99.90
27667;DHT22;15074;50.940;5.282;2023-06-19T09:10:20;26.30;99.90
27667;DHT22;15074;50.940;5.282;2023-06-19T09:13:03;26.70;99.90
27667;DHT22;15074;50.940;5.282;2023-06-19T09:15:34;26.80;99.90
27667;DHT22;15074;50.940;5.282;2023-06-19T09:20:30;29.00;99.90
27667;DHT22;15074;50.940;5.282;2023-06-19T09:22:57;30.00;99.90
27667;DHT22;15074;50.940;5.282;2023-06-19T09:25:23;30.80;99.90
27667;DHT22;15074;50.940;5.282;2023-06-19T09:27:50;31.50;99.60
27667;DHT22;15074;50.940;5.282;2023-06-19T09:30:16;31.30;98.80
27667;DHT22;15074;50.940;5.282;2023-06-19T09:32:42;30.60;99.20
27667;DHT22;15074;50.940;5.282;2023-06-19T09:35:07;30.20;99.90
27667;DHT22;15074;50.940;5.282;2023-06-19T09:37:33;31.00;99.20
27667;DHT22;15074;50.940;5.282;2023-06-19T09:40:02;31.80;98.90
27667;DHT22;15074;50.940;5.282;2023-06-19T09:42:40;32.70;96.10
27667;DHT22;15074;50.940;5.282;2023-06-19T09:45:11;33.30;95.20
27667;DHT22;15074;50.940;5.282;2023-06-19T09:47:39;32.80;94.90
27667;DHT22;15074;50.940;5.282;2023-06-19T09:50:08;32.40;94.10
27667;DHT22;15074;50.940;5.282;2023-06-19T09:52:36;31.90;94.10
27667;DHT22;15074;50.940;5.282;2023-06-19T09:55:03;31.30;94.50
27667;DHT22;15074;50.940;5.282;2023-06-19T09:57:30;31.60;94.70
27667;DHT22;15074;50.940;5.282;2023-06-19T09:59:59;31.60;94.50
27667;DHT22;15074;50.940;5.282;2023-06-19T10:02:35;32.40;93.60
27667;DHT22;15074;50.940;5.282;2023-06-19T10:05:01;32.00;92.70
27667;DHT22;15074;50.940;5.282;2023-06-19T10:07:33;31.00;94.30
27667;DHT22;15074;50.940;5.282;2023-06-19T10:10:45;30.60;94.80
27667;DHT22;15074;50.940;5.282;2023-06-19T10:13:19;29.80;95.20
27667;DHT22;15074;50.940;5.282;2023-06-19T10:15:45;29.50;96.60
27667;DHT22;15074;50.940;5.282;2023-06-19T10:18:17;29.10;96.50
27667;DHT22;15074;50.940;5.282;2023-06-19T10:20:44;28.80;97.50
27667;DHT22;15074;50.940;5.282;2023-06-19T10:23:13;28.10;98.60
27667;DHT22;15074;50.940;5.282;2023-06-19T10:25:47;28.10;99.70
27667;DHT22;15074;50.940;5.282;2023-06-19T10:33:20;29.00;99.30
27667;DHT22;15074;50.940;5.282;2023-06-19T10:35:45;29.40;98.40
27667;DHT22;15074;50.940;5.282;2023-06-19T10:38:14;30.30;96.10
27667;DHT22;15074;50.940;5.282;2023-06-19T10:40:40;32.10;93.70
27667;DHT22;15074;50.940;5.282;2023-06-19T10:43:06;32.40;92.40
27667;DHT22;15074;50.940;5.282;2023-06-19T10:45:32;32.70;92.40
27667;DHT22;15074;50.940;5.282;2023-06-19T10:48:00;33.10;91.10
27667;DHT22;15074;50.940;5.282;2023-06-19T10:50:27;31.80;92.80
27667;DHT22;15074;50.940;5.282;2023-06-19T10:52:54;31.60;93.30
27667;DHT22;15074;50.940;5.282;2023-06-19T10:55:21;31.40;92.30
27667;DHT22;15074;50.940;5.282;2023-06-19T10:57:48;31.10;93.00
27667;DHT22;15074;50.940;5.282;2023-06-19T11:00:23;31.40;92.20
27667;DHT22;15074;50.940;5.282;2023-06-19T11:02:49;31.90;91.10
27667;DHT22;15074;50.940;5.282;2023-06-19T11:05:16;30.60;92.20
27667;DHT22;15074;50.940;5.282;2023-06-19T11:07:50;30.40;91.90
27667;DHT22;15074;50.940;5.282;2023-06-19T11:10:20;29.80;91.90
27667;DHT22;15074;50.940;5.282;2023-06-19T11:12:48;29.10;92.20
27667;DHT22;15074;50.940;5.282;2023-06-19T11:15:14;29.50;91.80
27667;DHT22;15074;50.940;5.282;2023-06-19T11:17:39;30.70;93.20
27667;DHT22;15074;50.940;5.282;2023-06-19T11:20:10;32.20;90.50
27667;DHT22;15074;50.940;5.282;2023-06-19T11:22:40;32.80;89.00
27667;DHT22;15074;50.940;5.282;2023-06-19T11:25:08;33.20;85.60
27667;DHT22;15074;50.940;5.282;2023-06-19T11:27:39;32.30;87.00
27667;DHT22;15074;50.940;5.282;2023-06-19T11:30:06;32.60;87.00
27667;DHT22;15074;50.940;5.282;2023-06-19T11:32:36;33.10;87.10
27667;DHT22;15074;50.940;5.282;2023-06-19T11:35:15;32.80;85.90
27667;DHT22;15074;50.940;5.282;2023-06-19T11:37:43;32.10;87.00
27667;DHT22;15074;50.940;5.282;2023-06-19T11:40:09;31.20;88.70
27667;DHT22;15074;50.940;5.282;2023-06-19T11:42:53;30.60;88.20
27667;DHT22;15074;50.940;5.282;2023-06-19T11:45:19;30.00;89.50
27667;DHT22;15074;50.940;5.282;2023-06-19T11:47:45;30.80;91.10
27667;DHT22;15074;50.940;5.282;2023-06-19T11:50:12;31.00;87.70
27667;DHT22;15074;50.940;5.282;2023-06-19T11:52:39;30.40;89.90
27667;DHT22;15074;50.940;5.282;2023-06-19T11:55:05;30.00;90.10
27667;DHT22;15074;50.940;5.282;2023-06-19T11:57:31;30.70;89.40
27667;DHT22;15074;50.940;5.282;2023-06-19T11:59:58;31.70;87.90
27667;DHT22;15074;50.940;5.282;2023-06-19T12:02:24;31.00;88.50
27667;DHT22;15074;50.940;5.282;2023-06-19T12:04:49;31.60;88.10
27667;DHT22;15074;50.940;5.282;2023-06-19T12:07:15;32.30;86.20
27667;DHT22;15074;50.940;5.282;2023-06-19T12:09:41;32.40;83.70
27667;DHT22;15074;50.940;5.282;2023-06-19T12:12:08;32.90;83.10
27667;DHT22;15074;50.940;5.282;2023-06-19T12:14:34;32.80;84.10
27667;DHT22;15074;50.940;5.282;2023-06-19T12:17:00;32.80;83.30
27667;DHT22;15074;50.940;5.282;2023-06-19T12:19:26;32.80;82.20
27667;DHT22;15074;50.940;5.282;2023-06-19T12:21:53;31.70;84.50
27667;DHT22;15074;50.940;5.282;2023-06-19T12:24:19;31.20;86.40
27667;DHT22;15074;50.940;5.282;2023-06-19T12:26:45;30.70;87.60
27667;DHT22;15074;50.940;5.282;2023-06-19T12:29:10;30.70;88.60
27667;DHT22;15074;50.940;5.282;2023-06-19T12:31:36;29.60;89.00
27667;DHT22;15074;50.940;5.282;2023-06-19T12:34:02;29.50;90.40
27667;DHT22;15074;50.940;5.282;2023-06-19T12:36:28;30.00;89.70
27667;DHT22;15074;50.940;5.282;2023-06-19T12:38:56;31.00;86.70
27667;DHT22;15074;50.940;5.282;2023-06-19T12:41:22;31.40;85.40
27667;DHT22;15074;50.940;5.282;2023-06-19T12:43:48;31.50;86.00
27667;DHT22;15074;50.940;5.282;2023-06-19T12:46:14;29.50;89.10
27667;DHT22;15074;50.940;5.282;2023-06-19T12:48:41;28.70;90.40
27667;DHT22;15074;50.940;5.282;2023-06-19T12:51:07;28.10;91.60
27667;DHT22;15074;50.940;5.282;2023-06-19T12:53:32;28.50;92.50
27667;DHT22;15074;50.940;5.282;2023-06-19T12:55:59;29.40;90.70
27667;DHT22;15074;50.940;5.282;2023-06-19T12:58:25;30.20;88.60
27667;DHT22;15074;50.940;5.282;2023-06-19T13:00:51;31.70;87.90
27667;DHT22;15074;50.940;5.282;2023-06-19T13:03:17;32.50;83.30
27667;DHT22;15074;50.940;5.282;2023-06-19T13:05:44;32.20;83.90
27667;DHT22;15074;50.940;5.282;2023-06-19T13:08:10;31.40;84.30
27667;DHT22;15074;50.940;5.282;2023-06-19T13:10:35;31.50;83.20
27667;DHT22;15074;50.940;5.282;2023-06-19T13:13:01;32.30;79.90
27667;DHT22;15074;50.940;5.282;2023-06-19T13:15:27;31.80;81.10
27667;DHT22;15074;50.940;5.282;2023-06-19T13:17:53;32.50;81.10
27667;DHT22;15074;50.940;5.282;2023-06-19T13:20:19;33.50;78.60
27667;DHT22;15074;50.940;5.282;2023-06-19T13:22:44;33.40;77.20
27667;DHT22;15074;50.940;5.282;2023-06-19T13:25:10;32.10;80.50
27667;DHT22;15074;50.940;5.282;2023-06-19T13:27:36;32.60;80.00
27667;DHT22;15074;50.940;5.282;2023-06-19T13:30:01;31.50;82.80
27667;DHT22;15074;50.940;5.282;2023-06-19T13:32:27;31.50;82.20
27667;DHT22;15074;50.940;5.282;2023-06-19T13:34:53;31.70;81.70
27667;DHT22;15074;50.940;5.282;2023-06-19T13:37:19;31.50;81.40
27667;DHT22;15074;50.940;5.282;2023-06-19T13:39:45;31.90;80.20
27667;DHT22;15074;50.940;5.282;2023-06-19T13:42:11;31.50;82.50
27667;DHT22;15074;50.940;5.282;2023-06-19T13:44:37;31.30;82.40
27667;DHT22;15074;50.940;5.282;2023-06-19T13:47:04;31.30;79.80
27667;DHT22;15074;50.940;5.282;2023-06-19T13:49:29;30.50;81.50
27667;DHT22;15074;50.940;5.282;2023-06-19T13:51:55;30.70;83.20
27667;DHT22;15074;50.940;5.282;2023-06-19T13:54:21;30.20;84.30
27667;DHT22;15074;50.940;5.282;2023-06-19T13:56:48;30.00;84.20
27667;DHT22;15074;50.940;5.282;2023-06-19T13:59:14;30.20;83.60
27667;DHT22;15074;50.940;5.282;2023-06-19T14:01:40;30.40;84.80
27667;DHT22;15074;50.940;5.282;2023-06-19T14:04:07;30.70;82.60
27667;DHT22;15074;50.940;5.282;2023-06-19T14:06:34;30.20;84.20
27667;DHT22;15074;50.940;5.282;2023-06-19T14:09:01;31.30;83.10
27667;DHT22;15074;50.940;5.282;2023-06-19T14:11:26;31.70;81.10
27667;DHT22;15074;50.940;5.282;2023-06-19T14:13:52;31.80;81.90
27667;DHT22;15074;50.940;5.282;2023-06-19T14:16:18;32.60;80.50
27667;DHT22;15074;50.940;5.282;2023-06-19T14:18:43;32.90;78.50
27667;DHT22;15074;50.940;5.282;2023-06-19T14:21:09;33.30;78.20
27667;DHT22;15074;50.940;5.282;2023-06-19T14:23:35;33.50;76.70
27667;DHT22;15074;50.940;5.282;2023-06-19T14:26:05;33.20;76.40
27667;DHT22;15074;50.940;5.282;2023-06-19T14:28:31;33.20;76.10
27667;DHT22;15074;50.940;5.282;2023-06-19T14:30:56;33.50;75.40
27667;DHT22;15074;50.940;5.282;2023-06-19T14:33:22;32.70;75.90
27667;DHT22;15074;50.940;5.282;2023-06-19T14:35:48;33.00;76.80
27667;DHT22;15074;50.940;5.282;2023-06-19T14:38:14;32.60;77.00
27667;DHT22;15074;50.940;5.282;2023-06-19T14:40:41;32.90;75.70
27667;DHT22;15074;50.940;5.282;2023-06-19T14:43:07;32.10;76.50
27667;DHT22;15074;50.940;5.282;2023-06-19T14:45:35;32.40;77.40
27667;DHT22;15074;50.940;5.282;2023-06-19T14:48:01;32.60;77.80
27667;DHT22;15074;50.940;5.282;2023-06-19T14:50:27;32.40;77.90
27667;DHT22;15074;50.940;5.282;2023-06-19T14:52:57;32.00;78.50
27667;DHT22;15074;50.940;5.282;2023-06-19T14:55:22;32.00;78.70
27667;DHT22;15074;50.940;5.282;2023-06-19T14:57:48;32.00;79.70
27667;DHT22;15074;50.940;5.282;2023-06-19T15:00:14;31.70;80.20
27667;DHT22;15074;50.940;5.282;2023-06-19T15:02:39;31.70;80.80
27667;DHT22;15074;50.940;5.282;2023-06-19T15:05:06;31.20;81.20
27667;DHT22;15074;50.940;5.282;2023-06-19T15:07:32;30.70;80.80
27667;DHT22;15074;50.940;5.282;2023-06-19T15:09:57;29.60;83.80
27667;DHT22;15074;50.940;5.282;2023-06-19T15:12:23;29.60;83.90
27667;DHT22;15074;50.940;5.282;2023-06-19T15:14:49;29.80;85.20
27667;DHT22;15074;50.940;5.282;2023-06-19T15:17:14;29.60;84.70
27667;DHT22;15074;50.940;5.282;2023-06-19T15:19:40;30.00;85.00
27667;DHT22;15074;50.940;5.282;2023-06-19T15:22:06;29.80;84.60
27667;DHT22;15074;50.940;5.282;2023-06-19T15:24:31;30.00;84.20
27667;DHT22;15074;50.940;5.282;2023-06-19T15:26:57;29.80;84.30
27667;DHT22;15074;50.940;5.282;2023-06-19T15:29:24;29.50;85.10
27667;DHT22;15074;50.940;5.282;2023-06-19T15:31:50;29.50;85.10
27667;DHT22;15074;50.940;5.282;2023-06-19T15:34:16;29.10;85.10
27667;DHT22;15074;50.940;5.282;2023-06-19T15:36:41;29.30;85.40